createdAt,value
2022-09-10T00:00:11.069Z,100770.47
2022-09-10T00:03:04.650Z,100781.34
2022-09-10T00:05:43.340Z,100776.97
2022-09-10T00:08:19.180Z,100775.28
2022-09-10T00:10:52.917Z,100766.94
2022-09-10T00:13:25.877Z,100770.16
2022-09-10T00:15:59.047Z,100772.28
2022-09-10T00:18:31.173Z,100776.22
2022-09-10T00:21:03.618Z,100775.16
2022-09-10T00:23:38.617Z,100777.72
2022-09-10T00:26:19.358Z,100776.41
2022-09-10T00:29:02.418Z,100770.81
2022-09-10T00:31:35.965Z,100770.22
2022-09-10T00:34:09.349Z,100766.19
2022-09-10T00:36:44.377Z,100766.78
2022-09-10T00:39:21.636Z,100775.97
2022-09-10T00:41:53.357Z,100764.44
2022-09-10T00:44:55.181Z,100763.91
2022-09-10T00:47:32.317Z,100760.19
2022-09-10T00:50:09.845Z,100759.63
2022-09-10T00:52:43.256Z,100754.41
2022-09-10T00:55:19.777Z,100758.25
2022-09-10T00:57:55.998Z,100758.72
2022-09-10T01:00:28.197Z,100755.69
2022-09-10T06:21:09.850Z,100813.50
2022-09-10T06:23:42.330Z,100814.00
2022-09-10T06:26:15.587Z,100823.94
2022-09-10T06:28:50.659Z,100827.75
2022-09-10T06:31:23.711Z,100828.50
2022-09-10T06:33:55.870Z,100824.28
2022-09-10T06:36:30.830Z,100820.97
2022-09-10T06:39:03.770Z,100827.34
2022-09-10T06:41:35.490Z,100824.78
2022-09-10T06:44:07.769Z,100828.84
2022-09-10T06:49:32.297Z,100824.06
2022-09-10T06:52:07.151Z,100822.66
2022-09-10T06:54:39.879Z,100822.53
2022-09-10T06:57:11.731Z,100828.22
2022-09-10T06:59:59.159Z,100827.50
2022-09-10T07:02:43.929Z,100826.28
2022-09-10T07:05:19.198Z,100827.97
2022-09-10T07:07:55.371Z,100824.63
2022-09-10T07:10:27.908Z,100822.53
2022-09-10T07:13:01.532Z,100820.06
2022-09-10T07:15:34.219Z,100820.81
2022-09-10T07:18:06.651Z,100812.47
2022-09-10T07:20:39.130Z,100825.63
2022-09-10T07:23:14.602Z,100826.91
2022-09-10T07:25:47.742Z,100819.59
2022-09-10T07:28:22.216Z,100827.25
2022-09-10T07:30:55.816Z,100822.97
2022-09-10T07:33:29.164Z,100824.13
2022-09-10T07:36:03.914Z,100821.97
2022-09-10T07:38:41.256Z,100823.91
2022-09-10T07:41:16.576Z,100824.28
2022-09-10T07:43:49.628Z,100828.13
2022-09-10T07:46:25.914Z,100823.34
2022-09-10T07:48:59.910Z,100829.00
2022-09-10T07:51:33.957Z,100820.84
2022-09-10T07:54:09.144Z,100823.59
2022-09-10T07:56:42.390Z,100820.38
2022-09-10T07:59:15.553Z,100828.53
2022-09-10T08:01:49.115Z,100828.88
2022-09-10T08:04:21.569Z,100835.50
2022-09-10T08:07:05.190Z,100829.72
2022-09-10T08:09:40.291Z,100828.41
2022-09-10T08:12:22.525Z,100835.16
2022-09-10T08:14:55.298Z,100833.72
2022-09-10T08:17:28.041Z,100835.63
2022-09-10T08:20:00.912Z,100837.09
2022-09-10T08:22:34.800Z,100834.53
2022-09-10T08:25:12.589Z,100833.94
2022-09-10T08:27:45.375Z,100842.84
2022-09-10T08:30:18.027Z,100836.16
2022-09-10T08:32:50.710Z,100832.69
2022-09-10T08:35:22.928Z,100833.53
2022-09-10T08:37:55.506Z,100831.97
2022-09-10T08:40:30.460Z,100836.81
2022-09-10T08:43:04.307Z,100841.50
2022-09-10T08:45:38.232Z,100837.91
2022-09-10T08:48:18.867Z,100840.66
2022-09-10T08:50:54.992Z,100835.00
2022-09-10T08:53:35.403Z,100833.34
2022-09-10T08:56:17.981Z,100841.81
2022-09-10T08:58:58.081Z,100831.44
2022-09-10T09:01:35.652Z,100838.16
2022-09-10T09:04:13.333Z,100834.88
2022-09-10T09:06:51.686Z,100837.63
2022-09-10T09:09:25.149Z,100840.38
2022-09-10T09:12:09.488Z,100829.63
2022-09-10T09:14:58.771Z,100836.47
2022-09-10T09:17:41.570Z,100837.03
2022-09-10T09:20:19.288Z,100835.06
2022-09-10T09:22:56.782Z,100836.50
2022-09-10T09:25:35.190Z,100831.41
2022-09-10T09:28:27.857Z,100827.41
2022-09-10T09:31:07.495Z,100833.63
2022-09-10T09:33:44.141Z,100827.69
2022-09-10T09:36:21.807Z,100838.19
2022-09-10T09:38:55.918Z,100835.09
2022-09-10T09:41:34.163Z,100831.53
2022-09-10T09:44:20.525Z,100825.44
2022-09-10T09:46:52.955Z,100827.19
2022-09-10T09:49:26.612Z,100825.75
2022-09-10T09:51:59.377Z,100820.22
2022-09-10T09:55:12.463Z,100823.00
2022-09-10T09:57:28.052Z,100817.75
2022-09-10T10:00:36.762Z,100818.25
2022-09-10T10:03:19.638Z,100820.25
2022-09-10T10:05:52.278Z,100812.75
2022-09-10T10:08:34.350Z,100812.78
2022-09-10T10:11:06.533Z,100817.16
2022-09-10T10:13:43.210Z,100807.78
2022-09-10T10:16:24.711Z,100808.94
2022-09-10T10:18:56.512Z,100808.69
2022-09-10T10:21:34.273Z,100807.22
2022-09-10T10:24:06.720Z,100812.94
2022-09-10T10:26:39.950Z,100811.47
2022-09-10T10:29:22.831Z,100805.91
2022-09-10T10:31:57.791Z,100798.41
2022-09-10T10:34:53.172Z,100801.75
2022-09-10T10:37:35.992Z,100803.34
2022-09-10T10:40:30.577Z,100803.00
2022-09-10T10:43:10.775Z,100793.59
2022-09-10T10:45:51.786Z,100801.50
2022-09-10T10:48:38.129Z,100804.16
2022-09-10T10:51:18.892Z,100795.09
2022-09-10T10:54:06.662Z,100797.25
2022-09-10T10:56:43.750Z,100802.44
2022-09-10T10:59:32.872Z,100795.72
2022-09-10T11:02:16.062Z,100797.22
2022-09-10T11:04:53.773Z,100797.41
2022-09-10T11:07:33.092Z,100790.97
2022-09-10T11:10:13.829Z,100792.72
2022-09-10T11:12:51.829Z,100784.50
2022-09-10T11:15:35.372Z,100788.31
2022-09-10T11:18:16.750Z,100792.66
2022-09-10T11:21:03.431Z,100784.84
2022-09-10T11:23:42.570Z,100795.09
2022-09-10T11:26:19.202Z,100790.38
2022-09-10T11:29:00.130Z,100794.50
2022-09-10T11:31:37.330Z,100785.13
2022-09-10T11:34:18.410Z,100796.84
2022-09-10T11:36:59.331Z,100790.19
2022-09-10T11:39:37.084Z,100788.91
2022-09-10T11:42:16.684Z,100792.41
2022-09-10T11:44:59.921Z,100791.59
2022-09-10T11:47:38.722Z,100786.75
2022-09-10T11:50:34.552Z,100795.25
2022-09-10T11:53:10.063Z,100788.44
2022-09-10T11:56:09.962Z,100791.47
2022-09-10T11:58:53.401Z,100789.25
2022-09-10T12:01:44.347Z,100781.72
2022-09-10T12:04:42.764Z,100776.50
2022-09-10T12:07:28.889Z,100771.25
2022-09-10T12:10:15.087Z,100769.06
2022-09-10T12:12:50.128Z,100768.13
2022-09-10T12:15:24.028Z,100770.44
2022-09-10T12:18:02.131Z,100768.59
2022-09-10T12:20:37.028Z,100771.75
2022-09-10T12:23:10.076Z,100756.25
2022-09-10T12:25:45.209Z,100764.28
2022-09-10T12:28:46.907Z,100757.16
2022-09-10T12:31:20.275Z,100761.00
2022-09-10T12:34:17.692Z,100755.69
2022-09-10T12:37:24.028Z,100755.75
2022-09-10T12:40:25.848Z,100755.72
2022-09-10T12:43:38.026Z,100757.28
2022-09-10T12:46:23.043Z,100753.00
2022-09-10T12:49:09.632Z,100753.97
2022-09-10T12:51:57.509Z,100750.59
2022-09-10T12:54:56.934Z,100749.28
2022-09-10T12:57:40.572Z,100745.72
2022-09-10T13:00:22.773Z,100742.50
2022-09-10T13:02:58.454Z,100736.50
2022-09-10T13:05:33.958Z,100733.22
2022-09-10T13:08:14.974Z,100737.78
2022-09-10T13:10:50.174Z,100730.25
2022-09-10T13:13:37.913Z,100727.13
2022-09-10T13:16:18.659Z,100724.75
2022-09-10T13:18:56.378Z,100715.78
2022-09-10T13:21:56.464Z,100726.34
2022-09-10T13:25:03.798Z,100726.38
2022-09-10T13:27:43.842Z,100734.16
2022-09-10T13:30:21.336Z,100732.91
2022-09-10T13:32:59.157Z,100737.53
2022-09-10T13:36:03.756Z,100725.38
2022-09-10T13:39:12.536Z,100719.91
2022-09-10T13:42:08.377Z,100719.88
2022-09-10T13:45:02.221Z,100717.38
2022-09-10T13:47:40.819Z,100715.44
2022-09-10T13:50:20.935Z,100711.09
2022-09-10T13:52:58.034Z,100715.66
2022-09-10T13:55:32.777Z,100723.44
2022-09-10T13:58:15.176Z,100714.50
2022-09-10T14:00:56.235Z,100720.00
2022-09-10T14:03:32.788Z,100716.72
2022-09-10T14:06:10.115Z,100720.50
2022-09-10T14:08:45.217Z,100723.97
2022-09-10T14:11:22.497Z,100722.84
2022-09-10T14:13:58.117Z,100723.34
2022-09-10T14:16:33.294Z,100727.91
2022-09-10T14:19:07.837Z,100725.75
2022-09-10T14:21:42.355Z,100726.03
2022-09-10T14:24:31.695Z,100738.50
2022-09-10T14:27:20.275Z,100743.09
2022-09-10T14:29:53.675Z,100744.47
2022-09-10T14:32:34.755Z,100749.56
2022-09-10T14:35:36.215Z,100747.53
2022-09-10T14:38:32.134Z,100746.25
2022-09-10T14:41:08.800Z,100741.19
2022-09-10T14:43:42.775Z,100740.13
2022-09-10T14:46:37.576Z,100741.06
2022-09-10T14:49:13.656Z,100740.00
2022-09-10T14:51:45.759Z,100732.91
2022-09-10T14:54:20.015Z,100734.31
2022-09-10T14:56:54.635Z,100739.72
2022-09-10T14:59:33.335Z,100732.00
2022-09-10T15:02:12.016Z,100735.25
2022-09-10T15:04:44.108Z,100728.38
2022-09-10T15:07:23.848Z,100723.47
2022-09-10T15:09:57.977Z,100732.41
2022-09-10T15:12:32.527Z,100737.91
2022-09-10T15:15:21.669Z,100734.16
2022-09-10T15:17:54.489Z,100740.75
2022-09-10T15:20:28.092Z,100745.38
2022-09-10T15:23:00.094Z,100745.81
2022-09-10T15:26:04.493Z,100742.84
2022-09-10T15:29:16.289Z,100742.34
2022-09-10T15:32:13.155Z,100737.88
2022-09-10T15:36:01.557Z,100731.22
2022-09-10T15:38:38.458Z,100736.97
2022-09-10T15:41:48.018Z,100734.91
2022-09-10T15:45:15.852Z,100737.41
2022-09-10T15:48:15.970Z,100740.03
2022-09-10T15:51:06.097Z,100736.22
2022-09-10T15:54:11.947Z,100742.88
2022-09-10T15:56:56.673Z,100736.47
2022-09-10T15:59:33.430Z,100742.91
2022-09-10T16:02:24.984Z,100745.97
2022-09-10T16:05:24.172Z,100741.72
2022-09-10T16:07:55.468Z,100745.25
2022-09-10T16:10:30.051Z,100746.19
2022-09-10T16:13:03.242Z,100741.75
2022-09-10T16:15:38.296Z,100753.75
2022-09-10T16:18:13.991Z,100750.78
2022-09-10T16:20:48.014Z,100754.25
2022-09-10T16:23:19.452Z,100756.56
2022-09-10T16:25:55.495Z,100757.84
2022-09-10T16:28:26.804Z,100750.47
2022-09-10T16:30:59.327Z,100758.69
2022-09-10T16:33:34.377Z,100757.25
2022-09-10T16:36:11.135Z,100761.44
2022-09-10T16:38:43.285Z,100765.72
2022-09-10T16:41:17.835Z,100768.78
2022-09-10T16:43:50.988Z,100774.75
2022-09-10T16:46:23.636Z,100770.78
2022-09-10T16:48:59.480Z,100779.13
2022-09-10T16:51:33.977Z,100780.34
2022-09-10T16:54:07.890Z,100788.88
2022-09-10T16:56:41.065Z,100791.72
2022-09-10T16:59:15.861Z,100792.66
2022-09-10T17:01:50.399Z,100787.28
2022-09-10T17:04:29.168Z,100790.22
2022-09-10T17:07:04.982Z,100788.44
2022-09-10T17:09:36.983Z,100780.84
2022-09-10T17:12:10.901Z,100782.72
2022-09-10T17:14:43.002Z,100783.75
2022-09-10T17:17:36.188Z,100780.22
2022-09-10T17:20:16.522Z,100780.13
2022-09-10T17:22:51.883Z,100784.75
2022-09-10T17:25:23.824Z,100786.06
2022-09-10T17:27:56.102Z,100792.06
2022-09-10T17:30:27.880Z,100791.69
2022-09-10T17:32:59.982Z,100790.19
2022-09-10T17:35:32.565Z,100800.13
2022-09-10T17:38:08.582Z,100801.94
2022-09-10T17:40:40.302Z,100810.22
2022-09-10T17:43:14.061Z,100806.94
2022-09-10T17:45:45.629Z,100808.91
2022-09-10T17:48:18.501Z,100820.09
2022-09-10T17:50:50.701Z,100819.72
2022-09-10T17:53:25.561Z,100815.66
2022-09-10T17:55:57.121Z,100818.75
2022-09-10T17:58:28.992Z,100817.59
2022-09-10T18:01:02.602Z,100815.78
2022-09-10T18:03:34.778Z,100825.84
2022-09-10T18:06:07.220Z,100824.84
2022-09-10T18:08:42.951Z,100821.31
2022-09-10T18:11:16.555Z,100831.06
2022-09-10T18:13:51.270Z,100829.06
2022-09-10T18:16:24.503Z,100836.00
2022-09-10T18:18:58.381Z,100837.47
2022-09-10T18:21:31.401Z,100843.81
2022-09-10T18:24:07.754Z,100845.06
2022-09-10T18:26:40.253Z,100844.66
2022-09-10T18:29:15.040Z,100843.41
2022-09-10T18:31:48.176Z,100840.53
2022-09-10T18:34:23.588Z,100846.41
2022-09-10T18:36:57.698Z,100847.44
2022-09-10T18:39:33.889Z,100846.63
2022-09-10T18:42:06.344Z,100842.00
2022-09-10T18:44:39.843Z,100843.25
2022-09-10T18:47:34.044Z,100843.47
2022-09-10T18:50:03.311Z,100847.50
2022-09-10T18:52:35.898Z,100851.09
2022-09-10T18:55:10.922Z,100853.00
2022-09-10T18:57:41.979Z,100853.69
2022-09-10T19:00:16.824Z,100852.88
2022-09-10T19:02:47.895Z,100848.47
2022-09-10T19:05:19.541Z,100840.53
2022-09-10T19:07:51.880Z,100840.72
2022-09-10T19:10:25.481Z,100839.47
2022-09-10T19:12:56.216Z,100834.69
2022-09-10T19:15:28.061Z,100840.09
2022-09-10T19:18:00.596Z,100844.94
2022-09-10T19:20:34.441Z,100833.81
2022-09-10T19:23:05.241Z,100834.44
2022-09-10T19:25:38.988Z,100823.53
2022-09-10T19:28:10.094Z,100825.88
2022-09-10T19:30:41.726Z,100830.50
2022-09-10T19:33:12.757Z,100822.13
2022-09-10T19:35:44.460Z,100826.34
2022-09-10T19:38:36.574Z,100824.06
2022-09-10T19:41:13.218Z,100832.00
2022-09-10T19:43:45.150Z,100827.63
2022-09-10T19:46:17.874Z,100825.56
2022-09-10T19:48:50.304Z,100827.00
2022-09-10T19:51:22.949Z,100823.88
2022-09-10T19:53:55.300Z,100835.38
2022-09-10T19:56:34.019Z,100830.78
2022-09-10T19:59:08.773Z,100831.22
2022-09-10T20:01:42.721Z,100834.56
2022-09-10T20:04:15.234Z,100830.59
2022-09-10T20:06:47.839Z,100832.44
2022-09-10T20:09:19.146Z,100835.41
2022-09-10T20:11:53.443Z,100842.94
2022-09-10T20:14:27.620Z,100838.75
2022-09-10T20:16:59.418Z,100846.28
2022-09-10T20:19:30.819Z,100851.50
2022-09-10T20:22:02.835Z,100843.13
2022-09-10T20:24:34.896Z,100849.63
2022-09-10T20:27:09.895Z,100852.97
2022-09-10T20:29:41.821Z,100852.31
2022-09-10T20:32:14.413Z,100849.19
2022-09-10T20:34:46.556Z,100857.75
2022-09-10T20:37:19.065Z,100851.88
2022-09-10T20:39:51.465Z,100850.00
2022-09-10T20:42:28.175Z,100854.81
2022-09-10T20:44:59.954Z,100848.09
2022-09-10T20:47:34.516Z,100852.22
2022-09-10T20:50:06.783Z,100853.47
2022-09-10T20:52:39.317Z,100856.13
2022-09-10T20:55:12.496Z,100850.09
2022-09-10T20:57:47.074Z,100852.56
2022-09-10T21:00:19.039Z,100849.84
2022-09-10T21:02:52.364Z,100858.59
2022-09-10T21:05:23.789Z,100857.91
2022-09-10T21:07:56.238Z,100854.38
2022-09-10T21:10:28.220Z,100849.97
2022-09-10T21:13:03.839Z,100853.31
2022-09-10T21:15:35.708Z,100856.84
2022-09-10T21:18:09.541Z,100856.63
2022-09-10T21:20:41.300Z,100862.25
2022-09-10T21:23:13.601Z,100857.66
2022-09-10T21:25:54.382Z,100862.03
2022-09-10T21:28:30.408Z,100859.34
2022-09-10T21:31:06.108Z,100857.84
2022-09-10T21:33:39.158Z,100855.34
2022-09-10T21:36:14.740Z,100859.47
2022-09-10T21:38:50.500Z,100865.75
2022-09-10T21:41:27.426Z,100864.06
2022-09-10T21:44:03.270Z,100855.13
2022-09-10T21:46:36.378Z,100863.69
2022-09-10T21:49:08.102Z,100864.91
2022-09-10T21:51:39.483Z,100865.09
2022-09-10T21:54:19.707Z,100869.47
2022-09-10T21:56:59.145Z,100876.53
2022-09-10T21:59:34.498Z,100872.59
2022-09-10T22:02:08.673Z,100873.19
2022-09-10T22:04:54.136Z,100871.72
2022-09-10T22:07:25.954Z,100881.28
2022-09-10T22:09:57.476Z,100884.38
2022-09-10T22:12:30.180Z,100881.66
2022-09-10T22:15:04.325Z,100882.88
2022-09-10T22:17:38.339Z,100892.13
2022-09-10T22:20:12.540Z,100888.31
2022-09-10T22:22:44.517Z,100890.44
2022-09-10T22:25:16.434Z,100889.59
2022-09-10T22:27:52.112Z,100886.66
2022-09-10T22:30:27.944Z,100889.19
2022-09-10T22:32:59.783Z,100887.06
2022-09-10T22:35:31.309Z,100874.09
2022-09-10T22:38:03.444Z,100878.84
2022-09-10T22:40:36.516Z,100887.19
2022-09-10T22:43:07.392Z,100879.72
2022-09-10T22:45:41.367Z,100890.09
2022-09-10T22:48:13.150Z,100887.25
2022-09-10T22:50:44.765Z,100889.06
2022-09-10T22:53:16.727Z,100890.75
2022-09-10T22:55:48.467Z,100894.72
2022-09-10T22:58:20.505Z,100897.06
2022-09-10T23:00:54.970Z,100903.97
2022-09-10T23:03:26.903Z,100903.59
2022-09-10T23:06:08.662Z,100908.09
2022-09-10T23:08:41.145Z,100902.91
2022-09-10T23:11:15.578Z,100898.84
2022-09-10T23:13:48.925Z,100908.06
2022-09-10T23:16:27.826Z,100905.72
2022-09-10T23:19:04.108Z,100903.53
2022-09-10T23:21:37.754Z,100904.69
2022-09-10T23:24:14.529Z,100903.19
2022-09-10T23:26:47.457Z,100908.41
2022-09-10T23:29:23.330Z,100910.31
2022-09-10T23:31:58.387Z,100907.59
2022-09-10T23:34:29.999Z,100912.31
2022-09-10T23:37:02.237Z,100910.25
2022-09-10T23:39:33.433Z,100917.53
2022-09-10T23:42:07.002Z,100906.06
2022-09-10T23:44:38.368Z,100914.00
2022-09-10T23:47:13.028Z,100917.44
2022-09-10T23:49:45.358Z,100913.63
2022-09-10T23:52:17.902Z,100919.72
2022-09-10T23:54:49.867Z,100917.75
2022-09-10T23:57:23.432Z,100917.38
2022-09-10T23:59:56.893Z,100919.34
